sensor_id;sensor_type;location;lat;lon;timestamp;pressure;altitude;pressure_sealevel;temperature;humidity
55604;BME280;41468;48.838;9.330;2023-10-31T00:00:32;96745.81;;;12.43;100.00
55604;BME280;41468;48.838;9.330;2023-10-31T00:02:58;96743.84;;;12.44;100.00
55604;BME280;41468;48.838;9.330;2023-10-31T00:05:25;96752.84;;;12.44;100.00
55604;BME280;41468;48.838;9.330;2023-10-31T00:07:52;96761.84;;;12.45;100.00
55604;BME280;41468;48.838;9.330;2023-10-31T00:10:19;96760.41;;;12.36;100.00
55604;BME280;41468;48.838;9.330;2023-10-31T00:12:46;96767.34;;;12.41;100.00
55604;BME280;41468;48.838;9.330;2023-10-31T00:15:13;96770.88;;;12.42;100.00
55604;BME280;41468;48.838;9.330;2023-10-31T00:17:39;96786.22;;;12.35;100.00
55604;BME280;41468;48.838;9.330;2023-10-31T00:20:07;96781.47;;;12.40;100.00
55604;BME280;41468;48.838;9.330;2023-10-31T00:22:33;96786.19;;;12.39;100.00
55604;BME280;41468;48.838;9.330;2023-10-31T00:25:00;96780.63;;;12.43;100.00
55604;BME280;41468;48.838;9.330;2023-10-31T00:27:27;96790.53;;;12.36;100.00
55604;BME280;41468;48.838;9.330;2023-10-31T00:29:54;96790.09;;;12.38;100.00
55604;BME280;41468;48.838;9.330;2023-10-31T00:32:21;96790.53;;;12.36;100.00
55604;BME280;41468;48.838;9.330;2023-10-31T00:34:47;96800.63;;;12.40;100.00
55604;BME280;41468;48.838;9.330;2023-10-31T00:37:14;96804.91;;;12.41;100.00
55604;BME280;41468;48.838;9.330;2023-10-31T00:39:41;96797.63;;;12.30;100.00
55604;BME280;41468;48.838;9.330;2023-10-31T00:42:08;96799.25;;;12.28;100.00
55604;BME280;41468;48.838;9.330;2023-10-31T00:44:39;96809.06;;;12.25;100.00
55604;BME280;41468;48.838;9.330;2023-10-31T00:47:06;96808.72;;;12.23;100.00
55604;BME280;41468;48.838;9.330;2023-10-31T00:49:33;96810.09;;;12.35;100.00
55604;BME280;41468;48.838;9.330;2023-10-31T00:51:59;96812.44;;;12.33;100.00
55604;BME280;41468;48.838;9.330;2023-10-31T00:54:26;96805.75;;;12.37;100.00
55604;BME280;41468;48.838;9.330;2023-10-31T00:56:53;96809.31;;;12.34;100.00
55604;BME280;41468;48.838;9.330;2023-10-31T00:59:20;96807.81;;;12.30;100.00
55604;BME280;41468;48.838;9.330;2023-10-31T01:01:46;96812.41;;;12.36;100.00
55604;BME280;41468;48.838;9.330;2023-10-31T01:04:18;96818.34;;;12.31;100.00
55604;BME280;41468;48.838;9.330;2023-10-31T01:06:44;96816.91;;;12.23;100.00
55604;BME280;41468;48.838;9.330;2023-10-31T01:09:11;96830.16;;;12.25;100.00
55604;BME280;41468;48.838;9.330;2023-10-31T01:11:38;96825.50;;;12.25;100.00
55604;BME280;41468;48.838;9.330;2023-10-31T01:14:05;96820.81;;;12.22;100.00
55604;BME280;41468;48.838;9.330;2023-10-31T01:16:32;96828.16;;;12.29;100.00
55604;BME280;41468;48.838;9.330;2023-10-31T01:18:59;96833.56;;;12.32;100.00
55604;BME280;41468;48.838;9.330;2023-10-31T01:21:25;96827.03;;;12.26;100.00
55604;BME280;41468;48.838;9.330;2023-10-31T01:23:52;96831.31;;;12.27;100.00
55604;BME280;41468;48.838;9.330;2023-10-31T01:26:19;96838.81;;;12.23;100.00
55604;BME280;41468;48.838;9.330;2023-10-31T01:28:46;96839.66;;;12.20;100.00
55604;BME280;41468;48.838;9.330;2023-10-31T01:31:12;96839.69;;;12.16;100.00
55604;BME280;41468;48.838;9.330;2023-10-31T01:33:39;96853.16;;;12.04;100.00
55604;BME280;41468;48.838;9.330;2023-10-31T01:36:06;96857.06;;;12.03;100.00
55604;BME280;41468;48.838;9.330;2023-10-31T01:38:33;96858.72;;;11.97;100.00
55604;BME280;41468;48.838;9.330;2023-10-31T01:41:00;96868.13;;;11.96;100.00
55604;BME280;41468;48.838;9.330;2023-10-31T01:43:35;96859.34;;;11.77;100.00
55604;BME280;41468;48.838;9.330;2023-10-31T01:46:03;96858.25;;;11.71;100.00
55604;BME280;41468;48.838;9.330;2023-10-31T01:48:32;96861.03;;;11.67;100.00
55604;BME280;41468;48.838;9.330;2023-10-31T01:51:01;96861.09;;;11.60;100.00
55604;BME280;41468;48.838;9.330;2023-10-31T01:53:31;96868.97;;;11.58;100.00
55604;BME280;41468;48.838;9.330;2023-10-31T01:56:00;96879.91;;;11.55;100.00
55604;BME280;41468;48.838;9.330;2023-10-31T01:58:31;96884.28;;;11.48;100.00
55604;BME280;41468;48.838;9.330;2023-10-31T02:01:00;96890.91;;;11.51;100.00
55604;BME280;41468;48.838;9.330;2023-10-31T02:03:27;96897.88;;;11.56;100.00
55604;BME280;41468;48.838;9.330;2023-10-31T02:08:35;96892.13;;;11.46;100.00
55604;BME280;41468;48.838;9.330;2023-10-31T02:11:01;96892.09;;;11.50;100.00
55604;BME280;41468;48.838;9.330;2023-10-31T02:13:30;96900.69;;;11.48;100.00
55604;BME280;41468;48.838;9.330;2023-10-31T02:15:57;96903.75;;;11.54;100.00
55604;BME280;41468;48.838;9.330;2023-10-31T02:18:23;96903.59;;;11.68;100.00
55604;BME280;41468;48.838;9.330;2023-10-31T02:20:50;96912.25;;;11.63;100.00
55604;BME280;41468;48.838;9.330;2023-10-31T02:23:17;96909.16;;;11.61;100.00
55604;BME280;41468;48.838;9.330;2023-10-31T02:25:54;96911.19;;;11.54;100.00
55604;BME280;41468;48.838;9.330;2023-10-31T02:28:21;96910.00;;;11.55;100.00
55604;BME280;41468;48.838;9.330;2023-10-31T02:30:48;96904.56;;;11.51;100.00
55604;BME280;41468;48.838;9.330;2023-10-31T02:33:15;96910.09;;;11.47;100.00
55604;BME280;41468;48.838;9.330;2023-10-31T02:35:42;96914.63;;;11.58;100.00
55604;BME280;41468;48.838;9.330;2023-10-31T02:38:08;96913.88;;;11.57;100.00
55604;BME280;41468;48.838;9.330;2023-10-31T02:40:35;96907.34;;;11.47;100.00
55604;BME280;41468;48.838;9.330;2023-10-31T02:43:02;96914.75;;;11.47;100.00
55604;BME280;41468;48.838;9.330;2023-10-31T02:45:29;96917.03;;;11.52;100.00
55604;BME280;41468;48.838;9.330;2023-10-31T02:47:56;96908.97;;;11.41;100.00
55604;BME280;41468;48.838;9.330;2023-10-31T02:50:22;96912.44;;;11.45;100.00
55604;BME280;41468;48.838;9.330;2023-10-31T02:52:49;96911.75;;;11.38;100.00
55604;BME280;41468;48.838;9.330;2023-10-31T02:55:16;96903.59;;;11.34;100.00
55604;BME280;41468;48.838;9.330;2023-10-31T02:57:43;96912.94;;;11.33;100.00
55604;BME280;41468;48.838;9.330;2023-10-31T03:00:10;96922.78;;;11.27;100.00
55604;BME280;41468;48.838;9.330;2023-10-31T03:02:37;96939.56;;;11.25;100.00
55604;BME280;41468;48.838;9.330;2023-10-31T03:05:04;96945.41;;;11.27;100.00
55604;BME280;41468;48.838;9.330;2023-10-31T03:07:31;96945.47;;;11.24;100.00
55604;BME280;41468;48.838;9.330;2023-10-31T03:09:58;96943.06;;;11.30;100.00
55604;BME280;41468;48.838;9.330;2023-10-31T03:12:25;96938.41;;;11.23;100.00
55604;BME280;41468;48.838;9.330;2023-10-31T03:14:52;96935.34;;;11.17;100.00
55604;BME280;41468;48.838;9.330;2023-10-31T03:17:30;96950.63;;;11.11;100.00
55604;BME280;41468;48.838;9.330;2023-10-31T03:19:57;96950.34;;;11.02;100.00
55604;BME280;41468;48.838;9.330;2023-10-31T03:22:24;96955.75;;;11.05;100.00
55604;BME280;41468;48.838;9.330;2023-10-31T03:24:50;96960.78;;;11.11;100.00
55604;BME280;41468;48.838;9.330;2023-10-31T03:27:17;96964.28;;;11.11;100.00
55604;BME280;41468;48.838;9.330;2023-10-31T03:29:44;96958.88;;;11.04;100.00
55604;BME280;41468;48.838;9.330;2023-10-31T03:32:11;96948.38;;;11.02;100.00
55604;BME280;41468;48.838;9.330;2023-10-31T03:34:38;96947.97;;;11.04;100.00
55604;BME280;41468;48.838;9.330;2023-10-31T03:37:05;96947.56;;;11.05;100.00
55604;BME280;41468;48.838;9.330;2023-10-31T03:39:32;96949.91;;;11.07;100.00
55604;BME280;41468;48.838;9.330;2023-10-31T03:41:59;96955.81;;;11.02;100.00
55604;BME280;41468;48.838;9.330;2023-10-31T03:44:26;96956.91;;;11.08;100.00
55604;BME280;41468;48.838;9.330;2023-10-31T03:46:53;96969.06;;;11.00;100.00
55604;BME280;41468;48.838;9.330;2023-10-31T03:49:24;96970.50;;;11.15;100.00
55604;BME280;41468;48.838;9.330;2023-10-31T03:51:51;96977.56;;;11.13;100.00
55604;BME280;41468;48.838;9.330;2023-10-31T03:54:17;96969.00;;;11.11;100.00
55604;BME280;41468;48.838;9.330;2023-10-31T03:56:44;96965.91;;;11.05;100.00
55604;BME280;41468;48.838;9.330;2023-10-31T03:59:11;96967.53;;;10.99;100.00
55604;BME280;41468;48.838;9.330;2023-10-31T04:01:38;96972.25;;;10.95;100.00
55604;BME280;41468;48.838;9.330;2023-10-31T04:04:05;96970.28;;;10.95;100.00
55604;BME280;41468;48.838;9.330;2023-10-31T04:06:32;96979.31;;;10.85;100.00
55604;BME280;41468;48.838;9.330;2023-10-31T04:08:58;96990.59;;;10.91;100.00
55604;BME280;41468;48.838;9.330;2023-10-31T04:11:25;96993.78;;;10.82;100.00
55604;BME280;41468;48.838;9.330;2023-10-31T04:13:52;96989.47;;;10.84;100.00
55604;BME280;41468;48.838;9.330;2023-10-31T04:16:18;97005.78;;;10.95;100.00
55604;BME280;41468;48.838;9.330;2023-10-31T04:18:45;97004.25;;;10.91;100.00
55604;BME280;41468;48.838;9.330;2023-10-31T04:21:12;97002.34;;;10.84;100.00
55604;BME280;41468;48.838;9.330;2023-10-31T04:23:39;97004.69;;;10.82;100.00
55604;BME280;41468;48.838;9.330;2023-10-31T04:26:06;97004.66;;;10.89;100.00
55604;BME280;41468;48.838;9.330;2023-10-31T04:28:33;96993.69;;;10.93;100.00
55604;BME280;41468;48.838;9.330;2023-10-31T04:31:00;96995.63;;;10.99;100.00
55604;BME280;41468;48.838;9.330;2023-10-31T04:33:26;96998.75;;;10.98;100.00
55604;BME280;41468;48.838;9.330;2023-10-31T04:35:53;97004.63;;;10.96;100.00
55604;BME280;41468;48.838;9.330;2023-10-31T04:38:30;96996.72;;;11.05;100.00
55604;BME280;41468;48.838;9.330;2023-10-31T04:40:57;97005.69;;;11.06;100.00
55604;BME280;41468;48.838;9.330;2023-10-31T04:43:24;96999.16;;;10.96;100.00
55604;BME280;41468;48.838;9.330;2023-10-31T04:45:51;97013.97;;;10.95;100.00
55604;BME280;41468;48.838;9.330;2023-10-31T04:48:17;97011.19;;;11.02;100.00
55604;BME280;41468;48.838;9.330;2023-10-31T04:50:44;97008.50;;;10.99;100.00
55604;BME280;41468;48.838;9.330;2023-10-31T04:53:11;97008.47;;;11.02;100.00
55604;BME280;41468;48.838;9.330;2023-10-31T04:55:38;97012.09;;;10.89;100.00
55604;BME280;41468;48.838;9.330;2023-10-31T04:58:04;97017.03;;;11.01;100.00
55604;BME280;41468;48.838;9.330;2023-10-31T05:00:31;97014.34;;;10.97;100.00
55604;BME280;41468;48.838;9.330;2023-10-31T05:03:04;97010.44;;;11.02;100.00
55604;BME280;41468;48.838;9.330;2023-10-31T05:05:32;97023.69;;;11.00;100.00
55604;BME280;41468;48.838;9.330;2023-10-31T05:07:58;97027.63;;;10.95;100.00
55604;BME280;41468;48.838;9.330;2023-10-31T05:10:25;97024.50;;;10.93;100.00
55604;BME280;41468;48.838;9.330;2023-10-31T05:12:52;97029.19;;;10.93;100.00
55604;BME280;41468;48.838;9.330;2023-10-31T05:15:20;97028.03;;;10.94;100.00
55604;BME280;41468;48.838;9.330;2023-10-31T05:17:46;97032.38;;;10.84;100.00
55604;BME280;41468;48.838;9.330;2023-10-31T05:20:14;97033.94;;;10.85;100.00
55604;BME280;41468;48.838;9.330;2023-10-31T05:22:41;97039.06;;;10.76;100.00
55604;BME280;41468;48.838;9.330;2023-10-31T05:25:08;97043.34;;;10.77;100.00
55604;BME280;41468;48.838;9.330;2023-10-31T05:27:34;97040.63;;;10.77;100.00
55604;BME280;41468;48.838;9.330;2023-10-31T05:30:01;97038.75;;;10.67;100.00
55604;BME280;41468;48.838;9.330;2023-10-31T05:32:28;97041.50;;;10.59;100.00
55604;BME280;41468;48.838;9.330;2023-10-31T05:34:55;97048.50;;;10.64;100.00
55604;BME280;41468;48.838;9.330;2023-10-31T05:37:25;97044.66;;;10.54;100.00
55604;BME280;41468;48.838;9.330;2023-10-31T05:39:52;97048.56;;;10.53;100.00
55604;BME280;41468;48.838;9.330;2023-10-31T05:42:18;97041.13;;;10.57;100.00
55604;BME280;41468;48.838;9.330;2023-10-31T05:44:47;97049.72;;;10.56;100.00
55604;BME280;41468;48.838;9.330;2023-10-31T05:47:14;97054.38;;;10.55;100.00
55604;BME280;41468;48.838;9.330;2023-10-31T05:49:43;97054.78;;;10.50;100.00
55604;BME280;41468;48.838;9.330;2023-10-31T05:52:09;97046.59;;;10.50;100.00
55604;BME280;41468;48.838;9.330;2023-10-31T05:54:36;97052.03;;;10.57;100.00
55604;BME280;41468;48.838;9.330;2023-10-31T05:57:03;97057.09;;;10.59;100.00
55604;BME280;41468;48.838;9.330;2023-10-31T05:59:30;97070.75;;;10.59;100.00
55604;BME280;41468;48.838;9.330;2023-10-31T06:01:57;97084.03;;;10.50;100.00
55604;BME280;41468;48.838;9.330;2023-10-31T06:04:24;97081.69;;;10.59;100.00
55604;BME280;41468;48.838;9.330;2023-10-31T06:06:51;97073.84;;;10.65;100.00
55604;BME280;41468;48.838;9.330;2023-10-31T06:09:18;97083.59;;;10.58;100.00
55604;BME280;41468;48.838;9.330;2023-10-31T06:11:45;97081.28;;;10.57;100.00
55604;BME280;41468;48.838;9.330;2023-10-31T06:14:11;97085.97;;;10.56;100.00
55604;BME280;41468;48.838;9.330;2023-10-31T06:16:42;97092.22;;;10.57;100.00
55604;BME280;41468;48.838;9.330;2023-10-31T06:19:13;97090.59;;;10.63;100.00
55604;BME280;41468;48.838;9.330;2023-10-31T06:21:40;97087.13;;;10.59;100.00
55604;BME280;41468;48.838;9.330;2023-10-31T06:24:07;97107.75;;;10.64;100.00
55604;BME280;41468;48.838;9.330;2023-10-31T06:26:34;97114.00;;;10.68;100.00
55604;BME280;41468;48.838;9.330;2023-10-31T06:29:01;97108.50;;;10.71;100.00
55604;BME280;41468;48.838;9.330;2023-10-31T06:31:48;97102.66;;;10.73;100.00
55604;BME280;41468;48.838;9.330;2023-10-31T06:34:14;97114.75;;;10.68;100.00
55604;BME280;41468;48.838;9.330;2023-10-31T06:36:41;97113.22;;;10.64;100.00
55604;BME280;41468;48.838;9.330;2023-10-31T06:39:08;97124.50;;;10.69;100.00
55604;BME280;41468;48.838;9.330;2023-10-31T06:41:36;97126.81;;;10.78;100.00
55604;BME280;41468;48.838;9.330;2023-10-31T06:44:03;97135.41;;;10.73;100.00
55604;BME280;41468;48.838;9.330;2023-10-31T06:46:30;97131.13;;;10.75;100.00
55604;BME280;41468;48.838;9.330;2023-10-31T06:48:57;97139.34;;;10.68;100.00
55604;BME280;41468;48.838;9.330;2023-10-31T06:51:24;97144.75;;;10.79;100.00
55604;BME280;41468;48.838;9.330;2023-10-31T06:53:51;97154.44;;;10.91;100.00
55604;BME280;41468;48.838;9.330;2023-10-31T06:56:18;97154.47;;;10.80;100.00
55604;BME280;41468;48.838;9.330;2023-10-31T06:58:44;97158.81;;;10.77;100.00
55604;BME280;41468;48.838;9.330;2023-10-31T07:01:11;97162.69;;;10.83;100.00
55604;BME280;41468;48.838;9.330;2023-10-31T07:03:40;97171.63;;;10.84;100.00
55604;BME280;41468;48.838;9.330;2023-10-31T07:06:07;97166.56;;;10.82;100.00
55604;BME280;41468;48.838;9.330;2023-10-31T07:08:34;97167.69;;;10.96;100.00
55604;BME280;41468;48.838;9.330;2023-10-31T07:11:00;97159.91;;;10.87;100.00
55604;BME280;41468;48.838;9.330;2023-10-31T07:13:28;97164.25;;;10.81;99.64
55604;BME280;41468;48.838;9.330;2023-10-31T07:15:54;97168.88;;;10.88;98.98
55604;BME280;41468;48.838;9.330;2023-10-31T07:18:21;97167.31;;;10.90;100.00
55604;BME280;41468;48.838;9.330;2023-10-31T07:20:48;97181.34;;;10.92;99.38
55604;BME280;41468;48.838;9.330;2023-10-31T07:23:15;97180.16;;;10.93;100.00
55604;BME280;41468;48.838;9.330;2023-10-31T07:25:42;97175.16;;;10.88;97.56
55604;BME280;41468;48.838;9.330;2023-10-31T07:28:10;97182.13;;;10.96;99.90
55604;BME280;41468;48.838;9.330;2023-10-31T07:30:36;97167.25;;;11.04;99.79
55604;BME280;41468;48.838;9.330;2023-10-31T07:33:03;97186.03;;;10.95;98.29
55604;BME280;41468;48.838;9.330;2023-10-31T07:35:30;97186.06;;;10.88;98.48
55604;BME280;41468;48.838;9.330;2023-10-31T07:37:57;97189.53;;;10.92;98.93
55604;BME280;41468;48.838;9.330;2023-10-31T07:40:24;97186.81;;;10.92;98.40
55604;BME280;41468;48.838;9.330;2023-10-31T07:42:50;97190.75;;;10.91;96.39
55604;BME280;41468;48.838;9.330;2023-10-31T07:45:17;97197.75;;;10.85;98.15
55604;BME280;41468;48.838;9.330;2023-10-31T07:47:44;97197.00;;;10.88;98.20
55604;BME280;41468;48.838;9.330;2023-10-31T07:50:11;97207.09;;;10.95;98.43
55604;BME280;41468;48.838;9.330;2023-10-31T07:52:37;97206.28;;;11.01;98.63
55604;BME280;41468;48.838;9.330;2023-10-31T07:55:05;97209.44;;;10.96;96.91
55604;BME280;41468;48.838;9.330;2023-10-31T07:57:32;97203.97;;;10.96;96.41
55604;BME280;41468;48.838;9.330;2023-10-31T07:59:58;97203.59;;;10.94;95.85
55604;BME280;41468;48.838;9.330;2023-10-31T08:02:25;97207.03;;;11.05;96.70
55604;BME280;41468;48.838;9.330;2023-10-31T08:04:52;97207.81;;;11.10;96.46
55604;BME280;41468;48.838;9.330;2023-10-31T08:07:19;97206.19;;;11.19;96.90
55604;BME280;41468;48.838;9.330;2023-10-31T08:09:50;97212.03;;;11.25;96.00
55604;BME280;41468;48.838;9.330;2023-10-31T08:12:17;97205.75;;;11.28;95.42
55604;BME280;41468;48.838;9.330;2023-10-31T08:14:43;97209.22;;;11.36;96.33
55604;BME280;41468;48.838;9.330;2023-10-31T08:17:10;97208.84;;;11.34;97.69
55604;BME280;41468;48.838;9.330;2023-10-31T08:19:37;97213.53;;;11.37;96.82
55604;BME280;41468;48.838;9.330;2023-10-31T08:22:04;97222.44;;;11.44;95.87
55604;BME280;41468;48.838;9.330;2023-10-31T08:24:30;97231.84;;;11.43;97.00
55604;BME280;41468;48.838;9.330;2023-10-31T08:26:57;97231.00;;;11.54;96.48
55604;BME280;41468;48.838;9.330;2023-10-31T08:29:24;97228.25;;;11.54;95.10
55604;BME280;41468;48.838;9.330;2023-10-31T08:31:51;97232.50;;;11.62;94.06
55604;BME280;41468;48.838;9.330;2023-10-31T08:34:18;97237.47;;;11.78;94.52
55604;BME280;41468;48.838;9.330;2023-10-31T08:36:44;97238.69;;;11.73;92.13
55604;BME280;41468;48.838;9.330;2023-10-31T08:39:11;97242.91;;;11.81;94.32
55604;BME280;41468;48.838;9.330;2023-10-31T08:41:50;97251.88;;;11.85;93.31
55604;BME280;41468;48.838;9.330;2023-10-31T08:44:17;97252.28;;;11.84;89.48
55604;BME280;41468;48.838;9.330;2023-10-31T08:46:44;97258.13;;;11.93;93.16
55604;BME280;41468;48.838;9.330;2023-10-31T08:49:11;97256.84;;;12.05;93.84
55604;BME280;41468;48.838;9.330;2023-10-31T08:51:38;97263.78;;;12.20;95.47
55604;BME280;41468;48.838;9.330;2023-10-31T08:54:05;97258.31;;;12.20;90.14
55604;BME280;41468;48.838;9.330;2023-10-31T08:56:32;97248.03;;;12.31;89.37
55604;BME280;41468;48.838;9.330;2023-10-31T08:58:59;97254.66;;;12.30;87.72
55604;BME280;41468;48.838;9.330;2023-10-31T09:01:26;97251.50;;;12.39;91.59
55604;BME280;41468;48.838;9.330;2023-10-31T09:03:53;97256.88;;;12.46;89.07
55604;BME280;41468;48.838;9.330;2023-10-31T09:06:20;97254.53;;;12.48;86.92
55604;BME280;41468;48.838;9.330;2023-10-31T09:08:47;97257.69;;;12.47;85.67
55604;BME280;41468;48.838;9.330;2023-10-31T09:11:14;97263.44;;;12.56;86.40
55604;BME280;41468;48.838;9.330;2023-10-31T09:13:41;97266.13;;;12.63;86.59
55604;BME280;41468;48.838;9.330;2023-10-31T09:16:08;97260.50;;;12.77;86.12
55604;BME280;41468;48.838;9.330;2023-10-31T09:18:35;97261.16;;;12.89;86.04
55604;BME280;41468;48.838;9.330;2023-10-31T09:21:02;97261.81;;;13.00;84.23
55604;BME280;41468;48.838;9.330;2023-10-31T09:23:29;97261.34;;;13.05;82.70
55604;BME280;41468;48.838;9.330;2023-10-31T09:25:56;97267.13;;;13.14;83.22
55604;BME280;41468;48.838;9.330;2023-10-31T09:28:23;97260.91;;;13.10;83.22
55604;BME280;41468;48.838;9.330;2023-10-31T09:30:50;97264.41;;;13.11;85.09
55604;BME280;41468;48.838;9.330;2023-10-31T09:33:17;97257.72;;;13.15;84.25
55604;BME280;41468;48.838;9.330;2023-10-31T09:35:44;97249.88;;;13.17;86.31
55604;BME280;41468;48.838;9.330;2023-10-31T09:38:16;97246.03;;;13.11;86.98
55604;BME280;41468;48.838;9.330;2023-10-31T09:40:46;97245.09;;;13.21;88.94
55604;BME280;41468;48.838;9.330;2023-10-31T09:43:12;97249.03;;;13.20;86.73
55604;BME280;41468;48.838;9.330;2023-10-31T09:45:39;97248.72;;;13.15;82.66
55604;BME280;41468;48.838;9.330;2023-10-31T09:48:06;97261.53;;;13.21;84.01
55604;BME280;41468;48.838;9.330;2023-10-31T09:50:33;97249.13;;;13.13;80.61
55604;BME280;41468;48.838;9.330;2023-10-31T09:53:00;97247.56;;;13.12;79.91
55604;BME280;41468;48.838;9.330;2023-10-31T09:55:28;97245.22;;;13.11;82.02
55604;BME280;41468;48.838;9.330;2023-10-31T09:57:55;97250.16;;;12.92;78.52
55604;BME280;41468;48.838;9.330;2023-10-31T10:00:22;97248.53;;;12.98;81.14
55604;BME280;41468;48.838;9.330;2023-10-31T10:02:49;97250.88;;;12.96;82.34
55604;BME280;41468;48.838;9.330;2023-10-31T10:05:16;97252.56;;;12.87;81.05
55604;BME280;41468;48.838;9.330;2023-10-31T10:07:45;97249.38;;;12.92;82.98
55604;BME280;41468;48.838;9.330;2023-10-31T10:10:12;97255.38;;;12.79;81.53
55604;BME280;41468;48.838;9.330;2023-10-31T10:12:44;97255.38;;;12.79;83.17
55604;BME280;41468;48.838;9.330;2023-10-31T10:15:11;97261.25;;;12.81;84.90
55604;BME280;41468;48.838;9.330;2023-10-31T10:17:38;97264.78;;;12.78;83.27
55604;BME280;41468;48.838;9.330;2023-10-31T10:20:11;97258.53;;;12.78;81.39
55604;BME280;41468;48.838;9.330;2023-10-31T10:22:42;97259.72;;;12.77;82.77
55604;BME280;41468;48.838;9.330;2023-10-31T10:25:18;97260.13;;;12.75;84.45
55604;BME280;41468;48.838;9.330;2023-10-31T10:27:45;97265.63;;;12.72;86.22
55604;BME280;41468;48.838;9.330;2023-10-31T10:30:13;97273.19;;;12.60;84.98
55604;BME280;41468;48.838;9.330;2023-10-31T10:32:40;97277.91;;;12.56;82.99
55604;BME280;41468;48.838;9.330;2023-10-31T10:35:07;97276.31;;;12.59;84.33
55604;BME280;41468;48.838;9.330;2023-10-31T10:37:42;97280.69;;;12.53;84.62
55604;BME280;41468;48.838;9.330;2023-10-31T10:40:10;97283.47;;;12.49;84.93
55604;BME280;41468;48.838;9.330;2023-10-31T10:42:44;97291.22;;;12.54;86.53
55604;BME280;41468;48.838;9.330;2023-10-31T10:45:13;97286.09;;;12.60;87.45
55604;BME280;41468;48.838;9.330;2023-10-31T10:47:46;97287.22;;;12.63;86.68
55604;BME280;41468;48.838;9.330;2023-10-31T10:50:13;97285.91;;;12.78;87.92
55604;BME280;41468;48.838;9.330;2023-10-31T10:53:12;97282.44;;;12.74;85.00
55604;BME280;41468;48.838;9.330;2023-10-31T10:55:45;97281.53;;;12.84;87.50
55604;BME280;41468;48.838;9.330;2023-10-31T10:58:34;97292.16;;;12.82;85.12
55604;BME280;41468;48.838;9.330;2023-10-31T11:01:04;97291.72;;;12.83;87.04
55604;BME280;41468;48.838;9.330;2023-10-31T11:03:31;97287.50;;;12.79;86.74
55604;BME280;41468;48.838;9.330;2023-10-31T11:05:59;97286.28;;;12.80;86.67
55604;BME280;41468;48.838;9.330;2023-10-31T11:08:27;97284.69;;;12.82;84.58
55604;BME280;41468;48.838;9.330;2023-10-31T11:10:55;97287.72;;;12.95;84.97
55604;BME280;41468;48.838;9.330;2023-10-31T11:13:22;97286.91;;;12.95;84.89
55604;BME280;41468;48.838;9.330;2023-10-31T11:15:53;97288.41;;;13.03;85.74
55604;BME280;41468;48.838;9.330;2023-10-31T11:18:23;97290.41;;;12.99;83.99
55604;BME280;41468;48.838;9.330;2023-10-31T11:20:50;97298.09;;;13.11;83.77
55604;BME280;41468;48.838;9.330;2023-10-31T11:23:24;97291.34;;;13.19;83.56
55604;BME280;41468;48.838;9.330;2023-10-31T11:25:51;97289.75;;;13.22;83.48
55604;BME280;41468;48.838;9.330;2023-10-31T11:28:20;97289.38;;;13.20;82.31
55604;BME280;41468;48.838;9.330;2023-10-31T11:30:51;97288.19;;;13.21;82.41
55604;BME280;41468;48.838;9.330;2023-10-31T11:33:28;97294.41;;;13.29;83.21
55604;BME280;41468;48.838;9.330;2023-10-31T11:36:01;97292.81;;;13.31;81.69
55604;BME280;41468;48.838;9.330;2023-10-31T11:38:36;97299.91;;;13.21;80.58
55604;BME280;41468;48.838;9.330;2023-10-31T11:41:04;97301.56;;;13.15;81.79
55604;BME280;41468;48.838;9.330;2023-10-31T11:46:23;97305.41;;;13.21;84.02
55604;BME280;41468;48.838;9.330;2023-10-31T11:48:56;97303.81;;;13.28;84.41
55604;BME280;41468;48.838;9.330;2023-10-31T11:51:24;97312.84;;;13.24;85.05
55604;BME280;41468;48.838;9.330;2023-10-31T11:53:51;97313.53;;;13.32;85.04
55604;BME280;41468;48.838;9.330;2023-10-31T11:56:20;97314.78;;;13.28;84.17
55604;BME280;41468;48.838;9.330;2023-10-31T11:59:04;97308.47;;;13.31;83.51
55604;BME280;41468;48.838;9.330;2023-10-31T12:01:31;97312.38;;;13.30;83.26
55604;BME280;41468;48.838;9.330;2023-10-31T12:03:58;97306.78;;;13.40;82.76
55604;BME280;41468;48.838;9.330;2023-10-31T12:06:25;97304.09;;;13.37;81.32
55604;BME280;41468;48.838;9.330;2023-10-31T12:08:51;97314.78;;;13.24;82.55
55604;BME280;41468;48.838;9.330;2023-10-31T12:11:21;97319.47;;;13.27;82.20
55604;BME280;41468;48.838;9.330;2023-10-31T12:14:02;97322.28;;;13.16;84.59
55604;BME280;41468;48.838;9.330;2023-10-31T12:16:33;97323.56;;;13.08;84.15
55604;BME280;41468;48.838;9.330;2023-10-31T12:19:02;97318.84;;;13.12;84.92
55604;BME280;41468;48.838;9.330;2023-10-31T12:24:06;97323.44;;;13.19;81.99
55604;BME280;41468;48.838;9.330;2023-10-31T12:26:34;97333.63;;;13.18;87.17
55604;BME280;41468;48.838;9.330;2023-10-31T12:29:12;97324.16;;;13.26;85.93
55604;BME280;41468;48.838;9.330;2023-10-31T12:31:42;97325.78;;;13.20;86.06
55604;BME280;41468;48.838;9.330;2023-10-31T12:34:10;97318.16;;;13.39;84.12
55604;BME280;41468;48.838;9.330;2023-10-31T12:36:37;97321.19;;;13.48;84.79
55604;BME280;41468;48.838;9.330;2023-10-31T12:39:05;97322.06;;;13.41;85.74
55604;BME280;41468;48.838;9.330;2023-10-31T12:41:34;97332.91;;;13.52;84.54
55604;BME280;41468;48.838;9.330;2023-10-31T12:44:01;97341.25;;;13.41;85.44
55604;BME280;41468;48.838;9.330;2023-10-31T12:46:29;97331.44;;;13.40;86.70
55604;BME280;41468;48.838;9.330;2023-10-31T12:48:57;97335.72;;;13.45;86.36
55604;BME280;41468;48.838;9.330;2023-10-31T12:51:24;97330.91;;;13.53;86.10
55604;BME280;41468;48.838;9.330;2023-10-31T12:53:52;97337.41;;;13.35;86.11
55604;BME280;41468;48.838;9.330;2023-10-31T12:56:38;97332.59;;;13.43;86.04
55604;BME280;41468;48.838;9.330;2023-10-31T12:59:10;97330.19;;;13.48;86.97
55604;BME280;41468;48.838;9.330;2023-10-31T13:01:43;97334.13;;;13.47;86.06
55604;BME280;41468;48.838;9.330;2023-10-31T13:04:10;97334.63;;;13.39;86.80
55604;BME280;41468;48.838;9.330;2023-10-31T13:06:38;97330.31;;;13.38;86.82